Time;durP1;ratioP1;P1;durP2;ratioP2;P2;SDS_P1;SDS_P2;PMS_P1;PMS_P2;Temp;Humidity;BMP_temperature;BMP_pressure;BME280_temperature;BME280_humidity;BME280_pressure;Samples;Min_cycle;Max_cycle;Signal;HPM_P1;HPM_P2
2022/05/24 06:15:20;;;;;;;;;2.00;2.00;;;;;20.59;51.89;100552.09;5054753;27;45624;-86
2022/05/24 06:17:49;;;;;;;;;2.67;1.33;;;;;20.74;51.69;100557.81;5063313;27;45496;-82
2022/05/24 06:20:16;;;;;;;;;4.00;1.33;;;;;20.92;51.40;100559.66;5061595;28;45530;-82
2022/05/24 06:22:41;;;;;;;;;1.00;1.00;;;;;21.14;50.74;100562.91;5065810;27;45525;-85
2022/05/24 06:25:07;;;;;;;;;1.33;1.33;;;;;21.40;50.56;100562.06;5058525;27;47157;-86
2022/05/24 06:27:32;;;;;;;;;2.33;1.00;;;;;21.67;49.99;100573.72;5064296;28;45359;-86
2022/05/24 06:29:58;;;;;;;;;1.00;1.00;;;;;21.92;49.24;100573.84;5058856;27;45464;-87
2022/05/24 06:32:23;;;;;;;;;6.67;1.00;;;;;22.20;49.38;100581.75;5061764;27;45485;-85
2022/05/24 06:34:49;;;;;;;;;0.33;0.33;;;;;22.45;48.39;100587.22;5064526;27;49328;-89
2022/05/24 06:37:15;;;;;;;;;1.00;1.00;;;;;22.69;48.13;100586.47;5058993;27;46080;-89
2022/05/24 06:39:41;;;;;;;;;2.00;2.00;;;;;22.91;48.13;100589.53;5059475;27;46697;-86
2022/05/24 06:42:06;;;;;;;;;2.00;2.00;;;;;23.12;47.13;100596.28;5064269;27;45392;-88
2022/05/24 06:44:32;;;;;;;;;0.00;0.00;;;;;23.30;47.12;100598.84;5065941;27;46133;-86
2022/05/24 06:46:57;;;;;;;;;1.00;1.00;;;;;23.51;46.02;100586.66;5054640;27;45422;-84
2022/05/24 06:49:23;;;;;;;;;2.33;2.33;;;;;23.69;45.97;100600.84;5059455;28;46227;-85
2022/05/24 06:51:48;;;;;;;;;2.00;0.67;;;;;23.87;45.83;100607.88;5062494;27;45860;-80
2022/05/24 06:54:13;;;;;;;;;0.00;0.00;;;;;24.02;45.67;100604.44;5060662;27;46594;-78
2022/05/24 06:56:39;;;;;;;;;0.00;0.00;;;;;24.12;45.59;100607.84;5063158;28;55744;-80
2022/05/24 07:04:54;;;;;;;;;1.00;1.00;;;;;24.52;45.40;100613.22;5062419;27;45569;-78
2022/05/24 07:07:19;;;;;;;;;1.00;1.00;;;;;24.63;45.16;100609.25;5051114;27;45348;-78
2022/05/24 07:09:44;;;;;;;;;2.00;1.33;;;;;24.76;45.21;100618.69;5054629;27;49330;-80
2022/05/24 07:12:09;;;;;;;;;1.00;1.00;;;;;24.87;45.18;100623.72;5065992;27;45657;-79
2022/05/24 07:14:35;;;;;;;;;2.33;1.00;;;;;24.98;44.95;100623.31;5050509;27;61380;-80
2022/05/24 07:17:01;;;;;;;;;1.67;1.67;;;;;25.10;43.67;100626.44;5049105;27;45471;-79
2022/05/24 07:19:27;;;;;;;;;0.67;0.67;;;;;25.18;44.26;100617.38;5061931;27;45539;-81
2022/05/24 07:21:52;;;;;;;;;1.00;1.00;;;;;25.25;43.80;100623.78;5060423;27;50169;-79
2022/05/24 07:24:18;;;;;;;;;1.00;1.00;;;;;25.31;44.15;100622.22;5058084;28;46133;-83
2022/05/24 07:26:44;;;;;;;;;1.00;1.00;;;;;25.41;44.09;100629.25;5049797;28;45418;-80
2022/05/24 07:29:09;;;;;;;;;0.33;0.33;;;;;25.49;43.42;100634.59;5046505;28;45870;-79
2022/05/24 07:31:34;;;;;;;;;2.00;0.33;;;;;25.58;42.13;100629.97;5048008;28;45911;-80
2022/05/24 07:34:01;;;;;;;;;1.00;1.00;;;;;25.63;42.87;100639.25;5048129;28;45945;-80
2022/05/24 07:36:27;;;;;;;;;1.00;1.00;;;;;25.68;43.29;100641.41;5048596;28;45861;-79
2022/05/24 07:38:52;;;;;;;;;4.00;1.33;;;;;25.71;42.92;100629.31;5051011;28;45552;-80
2022/05/24 07:46:45;;;;;;;;;1.00;1.00;;;;;25.82;43.00;100637.00;5045568;28;45731;-79
2022/05/24 07:49:11;;;;;;;;;2.00;0.67;;;;;25.84;43.05;100636.81;5040187;28;55299;-82
2022/05/24 07:51:36;;;;;;;;;2.67;1.00;;;;;25.91;43.15;100630.44;5042981;28;45693;-81
2022/05/24 07:54:02;;;;;;;;;1.00;1.00;;;;;25.96;43.21;100629.91;5035752;28;45973;-81
2022/05/24 07:56:27;;;;;;;;;1.00;1.00;;;;;26.02;42.74;100642.75;5033637;28;45712;-82
2022/05/24 07:58:54;;;;;;;;;0.00;0.00;;;;;26.06;42.87;100637.75;5046133;28;61746;-83
2022/05/24 08:01:19;;;;;;;;;1.00;1.00;;;;;26.11;42.62;100643.47;5044547;28;45654;-86
2022/05/24 08:03:45;;;;;;;;;1.00;1.00;;;;;26.18;42.54;100635.41;5048422;28;46983;-85
2022/05/24 08:06:11;;;;;;;;;1.00;1.00;;;;;26.21;42.57;100636.91;5040237;28;45679;-83
2022/05/24 08:08:37;;;;;;;;;1.67;1.67;;;;;26.24;42.45;100625.66;5051079;28;45829;-84
2022/05/24 08:11:04;;;;;;;;;0.33;0.33;;;;;26.24;42.88;100625.66;5047415;28;45534;-82
2022/05/24 08:13:30;;;;;;;;;1.67;1.67;;;;;26.27;40.63;100620.69;5053291;27;46401;-79
2022/05/24 08:15:56;;;;;;;;;3.33;1.67;;;;;26.31;40.66;100626.59;5067257;27;45426;-84
2022/05/24 08:18:23;;;;;;;;;0.33;0.33;;;;;26.29;40.54;100629.50;5068967;27;45822;-84
2022/05/24 08:20:49;;;;;;;;;0.33;0.33;;;;;26.28;40.53;100632.44;5056063;27;45378;-86
2022/05/24 08:23:17;;;;;;;;;1.00;1.00;;;;;26.26;41.12;100632.63;5040435;28;46100;-85
2022/05/24 08:25:44;;;;;;;;;1.00;1.00;;;;;26.27;41.33;100622.56;5077515;27;45390;-87
2022/05/24 08:28:09;;;;;;;;;1.67;1.67;;;;;26.30;40.90;100633.09;5069095;27;45532;-82
2022/05/24 08:30:38;;;;;;;;;1.00;1.00;;;;;26.32;41.02;100633.72;5069862;27;45416;-81
2022/05/24 08:33:04;;;;;;;;;0.00;0.00;;;;;26.34;41.01;100633.53;5071891;27;47895;-82
2022/05/24 08:35:32;;;;;;;;;3.00;1.33;;;;;26.36;41.41;100632.31;5069810;27;45464;-81
2022/05/24 08:37:58;;;;;;;;;0.33;0.33;;;;;26.38;41.70;100635.69;5066553;27;45569;-83
2022/05/24 08:40:23;;;;;;;;;1.33;1.00;;;;;26.42;41.65;100641.59;5071333;27;45783;-81
2022/05/24 08:43:16;;;;;;;;;2.33;1.00;;;;;26.44;41.78;100645.81;5070553;27;45320;-83
2022/05/24 08:48:46;;;;;;;;;0.00;0.00;;;;;26.51;41.60;100645.03;5058274;27;45601;-84
2022/05/24 08:51:18;;;;;;;;;2.33;0.67;;;;;26.54;41.98;100644.66;5067815;27;45525;-83
2022/05/24 08:53:46;;;;;;;;;1.67;1.00;;;;;26.54;41.53;100645.53;5067262;27;46209;-83
2022/05/24 08:56:19;;;;;;;;;1.00;1.00;;;;;26.55;42.02;100658.09;5070309;27;45564;-82
2022/05/24 08:58:50;;;;;;;;;1.00;1.00;;;;;26.59;41.64;100658.53;5065038;27;45574;-84
2022/05/24 09:01:32;;;;;;;;;3.33;2.00;;;;;26.62;40.18;100651.88;5037462;28;45585;-82
2022/05/24 09:03:58;;;;;;;;;3.00;3.00;;;;;26.66;39.38;100653.19;5080843;27;47262;-82
2022/05/24 09:06:30;;;;;;;;;2.00;1.00;;;;;26.69;38.19;100641.91;5069857;27;45525;-81
2022/05/24 09:09:14;;;;;;;;;2.00;2.00;;;;;26.69;38.28;100645.47;5058078;27;45544;-81
2022/05/24 09:11:45;;;;;;;;;5.00;2.00;;;;;26.68;37.76;100646.50;5056906;27;45458;-84
2022/05/24 09:14:33;;;;;;;;;2.33;1.33;;;;;26.63;38.55;100650.84;5063715;27;46051;-83
2022/05/24 09:17:11;;;;;;;;;2.00;2.00;;;;;26.57;38.84;100664.19;5066770;27;45402;-84
2022/05/24 09:19:40;;;;;;;;;1.00;1.00;;;;;26.54;38.52;100655.56;5077691;27;45562;-86
2022/05/24 09:22:06;;;;;;;;;2.00;0.33;;;;;26.51;38.73;100650.47;5057176;28;47179;-87
2022/05/24 09:24:56;;;;;;;;;3.00;1.33;;;;;26.52;39.31;100647.56;5062733;27;45490;-87
2022/05/24 09:27:26;;;;;;;;;3.67;1.67;;;;;26.54;38.87;100647.41;5059996;28;50716;-86
2022/05/24 09:30:03;;;;;;;;;1.00;1.00;;;;;26.56;39.07;100661.63;5068088;27;45821;-89
2022/05/24 09:32:39;;;;;;;;;1.00;1.00;;;;;26.57;39.54;100653.28;5070508;27;45392;-86
2022/05/24 09:35:16;;;;;;;;;1.67;1.00;;;;;26.60;38.96;100659.41;5066155;27;46090;-86
2022/05/24 09:37:47;;;;;;;;;2.67;2.00;;;;;26.60;39.53;100657.50;5065141;27;45645;-85
2022/05/24 09:40:21;;;;;;;;;2.00;2.00;;;;;26.63;37.56;100665.28;5059134;27;45776;-83
2022/05/24 09:42:48;;;;;;;;;3.33;2.00;;;;;26.64;37.79;100661.53;5065642;27;45428;-81
2022/05/24 09:45:23;;;;;;;;;1.33;1.33;;;;;26.63;37.78;100659.00;5067616;27;47405;-82
2022/05/24 09:47:48;;;;;;;;;2.00;2.00;;;;;26.60;38.00;100662.94;5065979;27;45474;-87
2022/05/24 09:50:30;;;;;;;;;5.00;3.00;;;;;26.59;37.96;100672.16;5067138;27;45582;-85
2022/05/24 09:53:10;;;;;;;;;1.00;1.00;;;;;26.58;38.64;100667.75;5066662;27;47363;-86
2022/05/24 09:55:47;;;;;;;;;4.00;1.00;;;;;26.61;38.92;100671.97;5060488;27;46336;-89
2022/05/24 09:58:22;;;;;;;;;2.00;2.00;;;;;26.61;38.96;100661.94;5055348;28;45660;-84
2022/05/24 10:00:56;;;;;;;;;1.00;1.00;;;;;26.63;38.54;100659.00;5059566;27;45505;-83
2022/05/24 10:03:27;;;;;;;;;2.00;2.00;;;;;26.65;39.08;100660.50;5062778;27;45282;-80
2022/05/24 10:06:20;;;;;;;;;1.00;1.00;;;;;26.67;39.41;100672.06;5062874;27;45561;-88
2022/05/24 10:09:20;;;;;;;;;0.67;0.67;;;;;26.70;39.62;100668.94;5060831;27;51240;-91
2022/05/24 10:12:04;;;;;;;;;3.67;2.00;;;;;26.74;38.85;100666.69;5048322;28;45827;-86
2022/05/24 10:14:55;;;;;;;;;1.00;1.00;;;;;26.76;39.42;100658.34;5064052;27;45502;-87
2022/05/24 10:17:35;;;;;;;;;1.00;1.00;;;;;26.80;38.94;100659.59;5067813;27;45831;-83
2022/05/24 10:20:16;;;;;;;;;1.33;0.67;;;;;26.81;38.58;100667.59;5065904;27;45912;-83
2022/05/24 10:22:44;;;;;;;;;1.00;1.00;;;;;26.88;37.12;100664.94;5061477;27;46016;-83
2022/05/24 10:25:26;;;;;;;;;1.00;1.00;;;;;26.92;36.00;100666.25;5065991;27;45453;-83
2022/05/24 10:28:10;;;;;;;;;2.00;1.67;;;;;26.93;36.05;100667.09;5054750;28;45482;-83
2022/05/24 10:30:54;;;;;;;;;1.00;1.00;;;;;26.87;35.68;100665.97;5064000;27;45459;-82
2022/05/24 10:39:49;;;;;;;;;1.67;1.67;;;;;26.81;35.25;100678.47;5066008;28;45739;-81
2022/05/24 10:42:34;;;;;;;;;3.00;3.00;;;;;26.79;35.61;100677.84;5054359;28;45448;-81
2022/05/24 10:45:13;;;;;;;;;0.67;0.67;;;;;26.76;35.08;100671.94;5062540;28;45305;-82
2022/05/24 10:47:47;;;;;;;;;2.00;1.00;;;;;26.75;34.56;100664.78;5056815;28;45422;-82
2022/05/24 10:50:39;;;;;;;;;1.00;1.00;;;;;26.73;34.36;100670.41;5058612;28;45528;-81
2022/05/24 10:53:11;;;;;;;;;1.33;1.33;;;;;26.72;34.56;100670.63;5065802;27;47883;-83
2022/05/24 10:55:46;;;;;;;;;0.67;0.67;;;;;26.69;34.20;100669.97;5051665;28;45662;-83
2022/05/24 10:58:15;;;;;;;;;1.00;1.00;;;;;26.63;34.75;100672.59;5056259;28;45430;-87
2022/05/24 11:00:49;;;;;;;;;0.33;0.33;;;;;26.58;35.18;100667.75;5067173;27;47289;-81
2022/05/24 11:03:24;;;;;;;;;0.00;0.00;;;;;26.58;35.31;100673.19;5068941;27;45506;-81
2022/05/24 11:05:56;;;;;;;;;2.00;0.00;;;;;26.59;34.91;100669.44;5068241;27;45481;-85
2022/05/24 11:08:48;;;;;;;;;2.67;0.67;;;;;26.62;34.84;100679.09;5060239;27;45473;-86
2022/05/24 11:11:29;;;;;;;;;1.00;1.00;;;;;26.63;35.07;100670.75;5059067;28;46465;-83
2022/05/24 11:14:06;;;;;;;;;1.00;1.00;;;;;26.68;35.22;100679.19;5063203;27;45498;-88
2022/05/24 11:16:46;;;;;;;;;1.00;1.00;;;;;26.70;35.65;100676.25;5062253;27;45513;-85
2022/05/24 11:19:17;;;;;;;;;1.00;1.00;;;;;26.69;35.11;100675.41;5068111;27;45457;-89
2022/05/24 11:21:50;;;;;;;;;1.00;1.00;;;;;26.72;34.71;100678.81;5067552;27;45499;-77
2022/05/24 11:24:27;;;;;;;;;1.67;1.00;;;;;26.75;33.79;100681.97;5067715;27;45546;-81
2022/05/24 11:26:56;;;;;;;;;0.67;0.33;;;;;26.74;33.38;100672.13;5077293;27;46020;-84
2022/05/24 11:29:31;;;;;;;;;2.33;0.33;;;;;26.73;32.89;100666.88;5066197;27;45514;-79
2022/05/24 11:32:02;;;;;;;;;0.67;0.67;;;;;26.70;33.20;100670.81;5068026;28;46222;-81
2022/05/24 11:34:32;;;;;;;;;0.67;0.67;;;;;26.65;33.41;100667.84;5073032;28;45505;-81
2022/05/24 11:37:24;;;;;;;;;1.00;1.00;;;;;26.60;33.67;100671.13;5073006;28;45391;-80
2022/05/24 11:39:49;;;;;;;;;4.00;3.00;;;;;26.54;32.97;100667.31;5068854;28;45721;-82
2022/05/24 11:42:34;;;;;;;;;3.00;1.33;;;;;26.53;33.07;100676.47;5072048;27;46540;-82
2022/05/24 11:45:19;;;;;;;;;1.00;1.00;;;;;26.50;33.21;100670.56;5064774;27;45577;-76
2022/05/24 11:47:48;;;;;;;;;1.33;1.33;;;;;26.44;33.50;100669.44;5070110;27;45610;-79
2022/05/24 11:50:31;;;;;;;;;1.00;1.00;;;;;26.41;33.47;100669.84;5069102;27;45467;-78
2022/05/24 11:53:19;;;;;;;;;1.00;1.00;;;;;26.41;33.61;100673.41;5066774;28;45498;-79
2022/05/24 11:55:53;;;;;;;;;2.00;1.00;;;;;26.42;34.28;100672.38;5066085;27;45689;-79
2022/05/24 11:58:21;;;;;;;;;0.67;0.67;;;;;26.48;34.55;100684.38;5069324;27;45593;-80
2022/05/24 12:01:05;;;;;;;;;1.00;1.00;;;;;26.52;34.89;100682.13;5068840;27;45715;-81
2022/05/24 12:09:59;;;;;;;;;1.00;1.00;;;;;26.68;35.54;100681.91;5069256;27;45441;-81
2022/05/24 12:12:32;;;;;;;;;0.33;0.33;;;;;26.73;34.88;100685.94;5059741;28;45424;-81
2022/05/24 12:15:18;;;;;;;;;3.00;1.00;;;;;26.77;35.52;100689.97;5057385;27;45400;-81
2022/05/24 12:17:47;;;;;;;;;1.00;1.00;;;;;26.80;35.29;100684.97;5072770;28;45609;-82
2022/05/24 12:20:32;;;;;;;;;0.33;0.33;;;;;26.86;35.81;100680.63;5057638;27;45555;-81
2022/05/24 12:23:04;;;;;;;;;3.33;0.67;;;;;26.92;35.56;100679.00;5050360;27;45708;-81
2022/05/24 12:25:54;;;;;;;;;0.33;0.33;;;;;26.97;35.66;100679.28;5060920;27;45555;-83
2022/05/24 12:28:52;;;;;;;;;1.00;1.00;;;;;26.98;35.95;100678.28;5066034;28;45541;-84
2022/05/24 12:31:18;;;;;;;;;0.00;0.00;;;;;27.04;34.15;100679.38;5072282;27;45281;-89
2022/05/24 12:33:53;;;;;;;;;1.00;1.00;;;;;27.05;33.95;100675.63;5070181;27;45437;-85
2022/05/24 12:36:31;;;;;;;;;0.00;0.00;;;;;27.06;34.87;100674.59;5066640;27;45918;-85
2022/05/24 12:39:23;;;;;;;;;1.33;0.00;;;;;27.06;34.41;100680.03;5063002;28;45411;-84
2022/05/24 12:41:55;;;;;;;;;1.00;1.00;;;;;27.08;34.84;100677.94;5065557;27;45957;-85
2022/05/24 12:44:31;;;;;;;;;1.00;1.00;;;;;27.10;34.80;100667.72;5069600;27;46174;-83
2022/05/24 12:47:12;;;;;;;;;0.00;0.00;;;;;27.13;35.05;100675.47;5061939;27;46402;-84
2022/05/24 12:49:54;;;;;;;;;2.00;2.00;;;;;27.15;34.80;100683.47;5058727;27;45487;-87
2022/05/24 12:52:25;;;;;;;;;1.00;1.00;;;;;27.15;35.11;100684.31;5073058;27;45822;-86
2022/05/24 12:54:53;;;;;;;;;1.00;1.00;;;;;27.17;34.49;100679.50;5063499;28;45691;-85
2022/05/24 12:57:21;;;;;;;;;0.00;0.00;;;;;27.21;32.61;100677.22;5063667;27;46346;-83
2022/05/24 12:59:55;;;;;;;;;0.33;0.33;;;;;27.23;32.86;100669.72;5065189;27;45477;-85
2022/05/24 13:02:30;;;;;;;;;2.00;1.00;;;;;27.18;32.91;100678.47;5069711;27;45755;-86
2022/05/24 13:05:19;;;;;;;;;6.00;3.00;;;;;27.18;32.21;100674.91;5062455;28;45441;-87
2022/05/24 13:07:50;;;;;;;;;2.33;0.67;;;;;27.10;32.63;100668.53;5045928;27;47004;-85
2022/05/24 13:10:19;;;;;;;;;1.33;1.00;;;;;27.06;33.02;100674.59;5063971;28;45788;-85
2022/05/24 13:12:45;;;;;;;;;5.00;3.00;;;;;27.02;33.59;100682.28;5063562;28;45452;-81
2022/05/24 13:15:15;;;;;;;;;3.00;1.33;;;;;26.98;33.35;100678.28;5053628;28;45575;-81
2022/05/24 13:17:43;;;;;;;;;2.33;2.00;;;;;26.98;33.90;100674.72;5064509;27;47336;-81
2022/05/24 13:20:31;;;;;;;;;1.00;1.00;;;;;26.99;34.10;100676.38;5069498;27;45469;-82
2022/05/24 13:22:59;;;;;;;;;3.67;2.00;;;;;27.01;33.97;100671.59;5059613;28;45550;-81
2022/05/24 13:25:48;;;;;;;;;1.00;1.00;;;;;27.05;34.50;100667.47;5064069;27;45431;-83
2022/05/24 13:28:31;;;;;;;;;2.33;1.00;;;;;27.10;34.18;100662.28;5051372;28;45469;-87
2022/05/24 13:33:44;;;;;;;;;3.00;1.00;;;;;27.19;34.15;100665.69;5060849;28;45418;-84
2022/05/24 13:36:12;;;;;;;;;4.00;1.33;;;;;27.23;34.60;100664.28;5071310;27;53796;-80
2022/05/24 13:38:39;;;;;;;;;1.67;1.00;;;;;27.25;34.69;100661.34;5071340;28;45584;-82
2022/05/24 13:41:04;;;;;;;;;2.00;2.00;;;;;27.28;34.65;100659.06;5059068;27;45617;-80
2022/05/24 13:43:44;;;;;;;;;1.33;1.00;;;;;27.32;34.99;100663.09;5072739;28;45403;-81
2022/05/24 13:46:13;;;;;;;;;1.00;1.00;;;;;27.35;34.64;100662.69;5061208;27;45416;-80
2022/05/24 13:48:50;;;;;;;;;2.67;2.00;;;;;27.39;35.04;100663.16;5060504;27;45637;-80
2022/05/24 13:51:25;;;;;;;;;1.00;1.00;;;;;27.44;34.73;100659.81;5059406;27;45419;-81
2022/05/24 13:53:51;;;;;;;;;1.00;1.00;;;;;27.45;35.19;100669.69;5063065;28;45917;-81
2022/05/24 13:56:23;;;;;;;;;1.00;1.00;;;;;27.50;34.98;100661.75;5064601;27;45746;-81
2022/05/24 13:59:04;;;;;;;;;1.00;1.00;;;;;27.53;35.14;100663.25;5070043;27;46085;-80
2022/05/24 14:01:35;;;;;;;;;0.00;0.00;;;;;27.54;35.48;100668.50;5072812;28;45554;-83
2022/05/24 14:04:11;;;;;;;;;2.33;1.67;;;;;27.57;35.50;100670.84;5068526;27;45500;-83
2022/05/24 14:06:48;;;;;;;;;1.67;1.67;;;;;27.59;35.35;100667.91;5067697;28;45602;-82
2022/05/24 14:09:13;;;;;;;;;1.33;1.33;;;;;27.62;35.59;100668.41;5069037;27;45415;-82
2022/05/24 14:11:53;;;;;;;;;2.00;0.00;;;;;27.65;35.43;100678.06;5073133;28;45328;-84
2022/05/24 14:14:20;;;;;;;;;0.67;0.00;;;;;27.66;35.59;100677.00;5068210;27;45440;-92
2022/05/24 14:16:46;;;;;;;;;1.67;1.00;;;;;27.68;33.08;100668.63;5053522;28;45395;-93
2022/05/24 14:19:12;;;;;;;;;1.00;1.00;;;;;27.69;33.57;100671.16;5064084;28;46104;-89
2022/05/24 14:21:40;;;;;;;;;1.00;1.00;;;;;27.70;33.22;100682.91;5068671;27;45593;-92
2022/05/24 14:24:12;;;;;;;;;0.33;0.33;;;;;27.68;33.41;100685.84;5067208;27;45182;-89
2022/05/24 14:26:44;;;;;;;;;6.00;1.33;;;;;27.64;33.46;100679.09;5062799;28;45807;-88
2022/05/24 14:29:10;;;;;;;;;1.00;1.00;;;;;27.65;33.36;100679.94;5055847;27;45403;-89
2022/05/24 14:31:37;;;;;;;;;2.00;0.33;;;;;27.63;33.60;100674.69;5064207;28;45434;-88
2022/05/24 14:34:04;;;;;;;;;2.00;1.00;;;;;27.60;33.01;100680.53;5071956;28;45403;-88
2022/05/24 14:36:32;;;;;;;;;1.00;1.00;;;;;27.57;32.92;100686.34;5072823;28;45432;-89
2022/05/24 14:38:58;;;;;;;;;2.00;0.00;;;;;27.51;33.28;100684.41;5075420;28;46382;-88
2022/05/24 14:41:23;;;;;;;;;1.00;1.00;;;;;27.51;33.65;100688.00;5068385;28;45360;-89
2022/05/24 14:44:00;;;;;;;;;1.67;1.67;;;;;27.48;33.25;100688.38;5063037;28;45369;-88
2022/05/24 14:46:27;;;;;;;;;0.33;0.33;;;;;27.44;33.17;100687.06;5061143;28;45643;-89
2022/05/24 14:48:53;;;;;;;;;2.00;2.00;;;;;27.38;33.20;100687.88;5068985;27;48854;-84
2022/05/24 14:51:42;;;;;;;;;2.00;1.00;;;;;27.33;33.87;100689.31;5070937;28;45546;-91
2022/05/24 14:54:08;;;;;;;;;3.00;1.33;;;;;27.27;33.70;100686.50;5068006;27;45651;-83
2022/05/24 14:56:35;;;;;;;;;1.67;1.67;;;;;27.21;34.14;100688.13;5071835;27;45455;-82
2022/05/24 14:59:00;;;;;;;;;1.00;1.00;;;;;27.16;34.85;100685.16;5065739;27;46200;-81
2022/05/24 15:01:26;;;;;;;;;1.00;1.00;;;;;27.11;34.57;100680.28;5064192;27;54529;-82
2022/05/24 15:03:51;;;;;;;;;2.33;2.33;;;;;27.13;34.66;100686.38;5052061;27;45585;-82
2022/05/24 15:06:17;;;;;;;;;1.00;1.00;;;;;27.14;35.49;100690.78;5063907;27;45445;-83
2022/05/24 15:17:02;;;;;;;;;3.00;3.00;;;;;27.23;34.48;100686.88;5068918;27;45562;-84
2022/05/24 15:19:28;;;;;;;;;4.33;1.33;;;;;27.27;33.92;100689.22;5063154;27;45649;-79
2022/05/24 15:21:54;;;;;;;;;2.00;0.00;;;;;27.25;33.30;100689.44;5065460;28;45799;-79
2022/05/24 15:24:25;;;;;;;;;1.00;1.00;;;;;27.25;33.66;100697.59;5070653;27;45486;-81
2022/05/24 15:26:54;;;;;;;;;3.67;2.00;;;;;27.25;33.66;100692.16;5072585;27;45595;-80
2022/05/24 15:29:21;;;;;;;;;2.00;2.00;;;;;27.29;33.99;100698.91;5062626;27;50347;-79
2022/05/24 15:31:47;;;;;;;;;1.00;1.00;;;;;27.30;34.24;100695.13;5068384;28;45637;-81
2022/05/24 15:34:13;;;;;;;;;4.33;2.33;;;;;27.31;34.33;100698.72;5057835;28;45511;-80
2022/05/24 15:36:38;;;;;;;;;3.00;1.67;;;;;27.30;34.69;100691.59;5060863;27;45543;-79
2022/05/24 15:39:04;;;;;;;;;2.00;2.00;;;;;27.29;34.25;100696.19;5067344;28;46229;-78
2022/05/24 15:41:31;;;;;;;;;1.67;1.67;;;;;27.28;34.42;100702.66;5069693;28;45479;-80
2022/05/24 15:43:57;;;;;;;;;2.00;2.00;;;;;27.25;34.72;100713.13;5071179;27;45787;-81
2022/05/24 15:46:23;;;;;;;;;1.67;1.00;;;;;27.23;34.25;100716.03;5024752;28;46058;-81
2022/05/24 15:48:50;;;;;;;;;2.00;1.00;;;;;27.20;34.56;100711.81;5066590;27;59786;-84
2022/05/24 15:51:16;;;;;;;;;1.00;1.00;;;;;27.19;33.07;100714.72;5068551;28;45490;-80
2022/05/24 15:53:41;;;;;;;;;2.67;1.00;;;;;27.09;33.85;100723.22;5072691;27;45836;-81
2022/05/24 15:56:08;;;;;;;;;2.00;2.00;;;;;27.08;34.58;100719.66;5070790;28;45431;-81
2022/05/24 15:58:35;;;;;;;;;2.33;1.00;;;;;27.09;34.19;100732.22;5070078;27;47482;-81
2022/05/24 16:01:00;;;;;;;;;1.00;1.00;;;;;27.11;34.30;100732.06;5050132;28;46068;-81
2022/05/24 16:03:26;;;;;;;;;4.00;1.00;;;;;27.14;34.40;100730.81;5070042;27;46233;-80
2022/05/24 16:11:23;;;;;;;;;1.33;1.00;;;;;27.15;34.09;100738.81;5068985;28;45525;-81
2022/05/24 16:13:56;;;;;;;;;1.33;1.33;;;;;27.14;34.58;100739.00;5064056;27;46046;-80
2022/05/24 16:16:24;;;;;;;;;1.33;1.33;;;;;27.14;34.26;100736.28;5068294;27;45447;-80
2022/05/24 16:18:51;;;;;;;;;2.00;2.00;;;;;27.11;34.48;100740.22;5066330;27;45533;-84
2022/05/24 16:21:16;;;;;;;;;2.00;1.00;;;;;27.04;34.72;100744.75;5070099;27;48736;-87
2022/05/24 16:23:43;;;;;;;;;2.00;2.00;;;;;26.97;35.33;100744.66;5070495;27;45500;-84
2022/05/24 16:26:09;;;;;;;;;3.00;1.00;;;;;26.93;35.50;100741.47;5067169;28;45884;-86
2022/05/24 16:28:35;;;;;;;;;1.67;1.67;;;;;26.91;35.73;100743.53;5068300;27;45430;-88
2022/05/24 16:31:00;;;;;;;;;1.33;1.00;;;;;26.91;35.66;100745.41;5069095;27;45713;-88
2022/05/24 16:33:26;;;;;;;;;3.00;1.67;;;;;26.92;36.00;100752.53;5065403;28;47264;-90
2022/05/24 16:35:51;;;;;;;;;4.33;3.00;;;;;26.94;36.35;100755.94;5065828;28;45775;-88
2022/05/24 16:38:18;;;;;;;;;1.00;1.00;;;;;26.94;36.08;100755.94;5070055;27;46209;-89
2022/05/24 16:40:44;;;;;;;;;1.67;1.67;;;;;26.92;36.75;100756.09;5066819;28;45498;-92
2022/05/24 16:43:10;;;;;;;;;3.67;3.67;;;;;26.98;36.30;100757.25;5071082;28;45403;-87
2022/05/24 16:45:37;;;;;;;;;1.00;1.00;;;;;27.02;36.51;100765.88;5063263;28;45485;-83
2022/05/24 16:48:03;;;;;;;;;2.00;2.00;;;;;27.05;36.90;100760.88;5070651;28;45522;-85
2022/05/24 16:50:28;;;;;;;;;1.00;1.00;;;;;27.08;36.58;100768.69;5066828;28;45711;-85
2022/05/24 16:53:03;;;;;;;;;2.33;1.67;;;;;27.09;36.78;100773.09;5065778;28;45509;-87
2022/05/24 17:00:59;;;;;;;;;2.00;1.00;;;;;27.17;37.25;100768.56;5066917;28;45517;-85
2022/05/24 17:03:26;;;;;;;;;1.00;1.00;;;;;27.17;37.24;100763.97;5067942;28;45481;-87
2022/05/24 17:05:51;;;;;;;;;1.00;1.00;;;;;27.20;37.12;100760.84;5068417;28;45873;-86
2022/05/24 17:08:16;;;;;;;;;5.67;2.67;;;;;27.18;37.19;100760.19;5066473;28;50848;-85
2022/05/24 17:10:42;;;;;;;;;1.67;0.67;;;;;27.21;37.14;100772.59;5059592;28;45371;-89
2022/05/24 17:13:12;;;;;;;;;1.00;1.00;;;;;27.20;37.45;100781.81;5070558;28;45517;-87
2022/05/24 17:15:38;;;;;;;;;2.00;2.00;;;;;27.19;37.84;100780.13;5069338;27;45823;-85
2022/05/24 17:18:04;;;;;;;;;3.00;1.00;;;;;27.17;37.68;100787.63;5067196;27;46690;-87
2022/05/24 17:20:32;;;;;;;;;1.33;0.00;;;;;27.17;37.83;100784.91;5066439;27;45865;-85
2022/05/24 17:22:58;;;;;;;;;3.00;1.00;;;;;27.18;38.34;100787.44;5065057;27;45837;-92
2022/05/24 17:25:24;;;;;;;;;1.67;1.00;;;;;27.18;38.39;100792.06;5069726;27;45456;-90
2022/05/24 17:27:50;;;;;;;;;1.00;1.00;;;;;27.21;37.85;100791.66;5064140;28;46005;-93
2022/05/24 17:30:18;;;;;;;;;1.00;1.00;;;;;27.23;37.74;100806.78;5063473;27;45552;-93
2022/05/24 17:32:53;;;;;;;;;1.00;1.00;;;;;27.26;38.05;100818.34;5069956;28;45541;-88
2022/05/24 17:35:19;;;;;;;;;1.00;1.00;;;;;27.25;38.05;100824.84;5065784;27;45770;-83
2022/05/24 17:37:44;;;;;;;;;1.00;1.00;;;;;27.25;37.98;100838.44;5068431;28;45668;-86
2022/05/24 17:40:11;;;;;;;;;0.33;0.33;;;;;27.21;38.61;100841.56;5065496;27;45515;-89
2022/05/24 17:42:39;;;;;;;;;1.67;1.00;;;;;27.20;38.95;100831.69;5066076;28;45829;-86
2022/05/24 17:45:05;;;;;;;;;2.33;0.33;;;;;27.21;38.29;100838.81;5065345;27;45458;-86
2022/05/24 17:47:31;;;;;;;;;1.00;1.00;;;;;27.23;38.81;100838.63;5056919;28;46054;-86
2022/05/24 17:49:58;;;;;;;;;1.33;0.00;;;;;27.25;38.46;100852.06;5064581;27;45481;-91
2022/05/24 17:52:23;;;;;;;;;0.33;0.33;;;;;27.25;38.40;100855.63;5069893;28;45534;-89
2022/05/24 17:54:49;;;;;;;;;1.33;1.33;;;;;27.27;38.44;100860.88;5064002;27;45836;-82
2022/05/24 17:57:15;;;;;;;;;1.33;1.33;;;;;27.30;36.61;100857.78;5062152;28;46326;-81
2022/05/24 17:59:40;;;;;;;;;1.67;1.33;;;;;27.35;36.41;100864.34;5062988;27;45523;-81
2022/05/24 18:02:06;;;;;;;;;1.67;1.67;;;;;27.37;36.32;100864.16;5065464;28;45474;-82
2022/05/24 18:04:31;;;;;;;;;1.00;1.00;;;;;27.37;36.66;100866.88;5064203;27;45419;-82
2022/05/24 18:06:57;;;;;;;;;1.67;1.00;;;;;27.34;36.39;100873.56;5062983;27;47066;-81
2022/05/24 18:09:22;;;;;;;;;1.00;1.00;;;;;27.30;36.59;100866.78;5067381;27;45792;-81
2022/05/24 18:11:47;;;;;;;;;3.00;1.00;;;;;27.30;36.37;100872.25;5065976;27;50795;-82
2022/05/24 18:14:12;;;;;;;;;2.00;2.00;;;;;27.26;36.38;100873.66;5067969;28;50550;-81
2022/05/24 18:16:38;;;;;;;;;3.00;3.00;;;;;27.26;36.33;100870.09;5069055;27;46113;-82
2022/05/24 18:19:04;;;;;;;;;1.33;1.33;;;;;27.23;36.68;100879.50;5069323;28;45455;-82
2022/05/24 18:21:40;;;;;;;;;2.00;1.00;;;;;27.20;36.20;100874.44;5069210;28;54302;-81
2022/05/24 18:24:18;;;;;;;;;2.00;2.00;;;;;27.13;36.73;100874.34;5063115;28;45542;-82
2022/05/24 18:35:11;;;;;;;;;1.67;1.67;;;;;26.98;36.38;100900.75;5063336;27;46820;-81
2022/05/24 18:37:36;;;;;;;;;2.67;2.33;;;;;26.96;36.54;100912.69;5064438;27;47131;-82
2022/05/24 18:40:02;;;;;;;;;1.33;1.33;;;;;26.93;36.55;100910.31;5064332;27;45396;-82
2022/05/24 18:42:27;;;;;;;;;1.00;1.00;;;;;26.91;36.92;100911.53;5062459;27;46002;-83
2022/05/24 18:44:53;;;;;;;;;2.00;2.00;;;;;26.86;36.61;100909.38;5067796;27;47544;-87
2022/05/24 18:47:18;;;;;;;;;3.00;2.00;;;;;26.86;37.24;100920.25;5058989;27;45953;-84
2022/05/24 18:49:44;;;;;;;;;6.00;3.00;;;;;26.83;37.17;100915.19;5065822;28;45581;-87
2022/05/24 18:52:10;;;;;;;;;2.67;2.33;;;;;26.79;37.52;100916.59;5060220;27;45530;-84